Payne Gap, Kentucky
Current Conditions -  °F | °C
As of 3:35 PM on Saturday 25 Oct 2014 (Local Time) from KLNP Reporting Station
Overcast Overcast  
Wind Chill: 64°   Ceiling: 3700
Heat Index: 64°   Visibility: 10mi
Dew Point: 41°   Wind: 7mph
Humidity: 42%   Direction: 280°W
Pressure: 30.04"   Gusts: NA
Location:  37.1955°N, 82.6325°W
Report Text: KLNP 251935Z AUTO 28006KT 10SM SCT031 BKN037 OVC060 18/05 A3004 RMK AO2
Loading
Personal Weather Stations






























Interactive Weather Map
Tropical Storm Tracking
New forecast layout! Learn more

10-Day Weather Forecast

Advertisements
Track Severe Weather on mobile